sensor_id;sensor_type;location;lat;lon;timestamp;P1;durP1;ratioP1;P2;durP2;ratioP2
58139;SDS011;53185;47.378;18.922;2023-04-24T00:01:25;13.07;;;8.40;;
58139;SDS011;53185;47.378;18.922;2023-04-24T00:03:53;21.90;;;7.53;;
58139;SDS011;53185;47.378;18.922;2023-04-24T00:06:21;17.80;;;8.10;;
58139;SDS011;53185;47.378;18.922;2023-04-24T00:08:50;15.32;;;8.43;;
58139;SDS011;53185;47.378;18.922;2023-04-24T00:11:17;19.37;;;8.02;;
58139;SDS011;53185;47.378;18.922;2023-04-24T00:13:45;15.13;;;7.20;;
58139;SDS011;53185;47.378;18.922;2023-04-24T00:16:12;14.15;;;7.68;;
58139;SDS011;53185;47.378;18.922;2023-04-24T00:18:40;14.07;;;7.37;;
58139;SDS011;53185;47.378;18.922;2023-04-24T00:21:08;14.38;;;7.15;;
58139;SDS011;53185;47.378;18.922;2023-04-24T00:23:35;11.38;;;6.75;;
58139;SDS011;53185;47.378;18.922;2023-04-24T00:26:03;13.82;;;7.57;;
58139;SDS011;53185;47.378;18.922;2023-04-24T00:28:30;13.27;;;7.28;;
58139;SDS011;53185;47.378;18.922;2023-04-24T00:30:57;13.35;;;8.15;;
58139;SDS011;53185;47.378;18.922;2023-04-24T00:33:25;14.07;;;8.20;;
58139;SDS011;53185;47.378;18.922;2023-04-24T00:35:52;11.75;;;8.00;;
58139;SDS011;53185;47.378;18.922;2023-04-24T00:38:20;12.15;;;8.23;;
58139;SDS011;53185;47.378;18.922;2023-04-24T00:40:49;19.75;;;8.52;;
58139;SDS011;53185;47.378;18.922;2023-04-24T00:43:20;18.27;;;8.60;;
58139;SDS011;53185;47.378;18.922;2023-04-24T00:45:48;14.80;;;8.77;;
58139;SDS011;53185;47.378;18.922;2023-04-24T00:48:16;18.73;;;9.02;;
58139;SDS011;53185;47.378;18.922;2023-04-24T00:50:43;14.10;;;8.15;;
58139;SDS011;53185;47.378;18.922;2023-04-24T00:53:13;19.37;;;10.00;;
58139;SDS011;53185;47.378;18.922;2023-04-24T00:55:41;14.95;;;8.77;;
58139;SDS011;53185;47.378;18.922;2023-04-24T00:58:08;16.80;;;8.50;;
58139;SDS011;53185;47.378;18.922;2023-04-24T01:00:36;24.92;;;8.93;;
58139;SDS011;53185;47.378;18.922;2023-04-24T01:03:04;15.15;;;8.95;;
58139;SDS011;53185;47.378;18.922;2023-04-24T01:05:33;15.38;;;8.90;;
58139;SDS011;53185;47.378;18.922;2023-04-24T01:08:01;16.58;;;8.40;;
58139;SDS011;53185;47.378;18.922;2023-04-24T01:10:29;17.27;;;9.23;;
58139;SDS011;53185;47.378;18.922;2023-04-24T01:12:58;14.43;;;8.35;;
58139;SDS011;53185;47.378;18.922;2023-04-24T01:15:26;17.08;;;9.05;;
58139;SDS011;53185;47.378;18.922;2023-04-24T01:17:54;13.82;;;8.68;;
58139;SDS011;53185;47.378;18.922;2023-04-24T01:20:21;16.60;;;9.95;;
58139;SDS011;53185;47.378;18.922;2023-04-24T01:22:49;13.80;;;8.68;;
58139;SDS011;53185;47.378;18.922;2023-04-24T01:25:16;18.15;;;10.45;;
58139;SDS011;53185;47.378;18.922;2023-04-24T01:27:44;15.32;;;9.50;;
58139;SDS011;53185;47.378;18.922;2023-04-24T01:30:11;16.45;;;10.75;;
58139;SDS011;53185;47.378;18.922;2023-04-24T01:32:40;15.38;;;10.60;;
58139;SDS011;53185;47.378;18.922;2023-04-24T01:35:07;14.87;;;10.07;;
58139;SDS011;53185;47.378;18.922;2023-04-24T01:37:35;18.15;;;9.43;;
58139;SDS011;53185;47.378;18.922;2023-04-24T01:40:07;16.10;;;10.05;;
58139;SDS011;53185;47.378;18.922;2023-04-24T01:42:35;10.48;;;8.10;;
58139;SDS011;53185;47.378;18.922;2023-04-24T01:45:02;13.10;;;9.10;;
58139;SDS011;53185;47.378;18.922;2023-04-24T01:47:31;13.68;;;9.00;;
58139;SDS011;53185;47.378;18.922;2023-04-24T01:49:58;20.17;;;11.20;;
58139;SDS011;53185;47.378;18.922;2023-04-24T01:52:26;13.57;;;9.43;;
58139;SDS011;53185;47.378;18.922;2023-04-24T01:54:54;17.85;;;9.57;;
58139;SDS011;53185;47.378;18.922;2023-04-24T01:57:23;14.90;;;9.38;;
58139;SDS011;53185;47.378;18.922;2023-04-24T01:59:50;18.15;;;9.82;;
58139;SDS011;53185;47.378;18.922;2023-04-24T02:02:18;14.27;;;9.10;;
58139;SDS011;53185;47.378;18.922;2023-04-24T02:04:48;16.40;;;10.15;;
58139;SDS011;53185;47.378;18.922;2023-04-24T02:07:16;17.00;;;10.02;;
58139;SDS011;53185;47.378;18.922;2023-04-24T02:09:43;14.55;;;10.13;;
58139;SDS011;53185;47.378;18.922;2023-04-24T02:12:11;25.27;;;11.02;;
58139;SDS011;53185;47.378;18.922;2023-04-24T02:14:39;19.35;;;9.52;;
58139;SDS011;53185;47.378;18.922;2023-04-24T02:17:06;18.27;;;9.32;;
58139;SDS011;53185;47.378;18.922;2023-04-24T02:19:36;17.02;;;10.15;;
58139;SDS011;53185;47.378;18.922;2023-04-24T02:22:03;16.75;;;10.10;;
58139;SDS011;53185;47.378;18.922;2023-04-24T02:24:31;17.00;;;9.75;;
58139;SDS011;53185;47.378;18.922;2023-04-24T02:26:58;15.00;;;9.80;;
58139;SDS011;53185;47.378;18.922;2023-04-24T02:29:26;18.12;;;9.02;;
58139;SDS011;53185;47.378;18.922;2023-04-24T02:31:53;13.30;;;8.63;;
58139;SDS011;53185;47.378;18.922;2023-04-24T02:34:21;12.70;;;7.95;;
58139;SDS011;53185;47.378;18.922;2023-04-24T02:36:48;13.68;;;8.35;;
58139;SDS011;53185;47.378;18.922;2023-04-24T02:39:15;19.15;;;9.57;;
58139;SDS011;53185;47.378;18.922;2023-04-24T02:41:43;14.35;;;8.82;;
58139;SDS011;53185;47.378;18.922;2023-04-24T02:44:11;16.17;;;9.43;;
58139;SDS011;53185;47.378;18.922;2023-04-24T02:46:38;16.73;;;9.13;;
58139;SDS011;53185;47.378;18.922;2023-04-24T02:49:08;16.83;;;9.65;;
58139;SDS011;53185;47.378;18.922;2023-04-24T02:51:35;17.73;;;11.00;;
58139;SDS011;53185;47.378;18.922;2023-04-24T02:54:07;14.93;;;9.48;;
58139;SDS011;53185;47.378;18.922;2023-04-24T02:56:36;17.27;;;10.02;;
58139;SDS011;53185;47.378;18.922;2023-04-24T02:59:05;16.80;;;9.75;;
58139;SDS011;53185;47.378;18.922;2023-04-24T03:01:32;21.83;;;10.48;;
58139;SDS011;53185;47.378;18.922;2023-04-24T03:04:00;16.70;;;10.77;;
58139;SDS011;53185;47.378;18.922;2023-04-24T03:06:28;19.85;;;9.77;;
58139;SDS011;53185;47.378;18.922;2023-04-24T03:08:58;22.48;;;9.45;;
58139;SDS011;53185;47.378;18.922;2023-04-24T03:11:25;14.95;;;9.70;;
58139;SDS011;53185;47.378;18.922;2023-04-24T03:13:52;12.85;;;9.25;;
58139;SDS011;53185;47.378;18.922;2023-04-24T03:16:20;18.05;;;10.32;;
58139;SDS011;53185;47.378;18.922;2023-04-24T03:18:47;17.30;;;9.27;;
58139;SDS011;53185;47.378;18.922;2023-04-24T03:21:14;15.02;;;9.13;;
58139;SDS011;53185;47.378;18.922;2023-04-24T03:23:42;18.95;;;9.82;;
58139;SDS011;53185;47.378;18.922;2023-04-24T03:26:10;20.98;;;10.07;;
58139;SDS011;53185;47.378;18.922;2023-04-24T03:28:39;18.33;;;10.18;;
58139;SDS011;53185;47.378;18.922;2023-04-24T03:31:06;18.67;;;10.75;;
58139;SDS011;53185;47.378;18.922;2023-04-24T03:33:34;15.52;;;10.27;;
58139;SDS011;53185;47.378;18.922;2023-04-24T03:36:02;22.80;;;10.75;;
58139;SDS011;53185;47.378;18.922;2023-04-24T03:38:33;16.02;;;10.65;;
58139;SDS011;53185;47.378;18.922;2023-04-24T03:41:01;24.17;;;12.18;;
58139;SDS011;53185;47.378;18.922;2023-04-24T03:43:29;22.80;;;10.82;;
58139;SDS011;53185;47.378;18.922;2023-04-24T03:45:57;17.95;;;10.93;;
58139;SDS011;53185;47.378;18.922;2023-04-24T03:48:25;20.75;;;11.32;;
58139;SDS011;53185;47.378;18.922;2023-04-24T03:50:53;18.33;;;11.02;;
58139;SDS011;53185;47.378;18.922;2023-04-24T03:53:20;16.70;;;10.63;;
58139;SDS011;53185;47.378;18.922;2023-04-24T03:55:48;16.80;;;11.73;;
58139;SDS011;53185;47.378;18.922;2023-04-24T03:58:15;18.20;;;11.12;;
58139;SDS011;53185;47.378;18.922;2023-04-24T04:00:42;18.83;;;11.57;;
58139;SDS011;53185;47.378;18.922;2023-04-24T04:03:16;22.13;;;12.45;;
58139;SDS011;53185;47.378;18.922;2023-04-24T04:05:44;17.65;;;11.95;;
58139;SDS011;53185;47.378;18.922;2023-04-24T04:08:11;19.77;;;11.07;;
58139;SDS011;53185;47.378;18.922;2023-04-24T04:10:38;18.02;;;12.32;;
58139;SDS011;53185;47.378;18.922;2023-04-24T04:13:06;14.90;;;11.23;;
58139;SDS011;53185;47.378;18.922;2023-04-24T04:15:34;19.95;;;11.20;;
58139;SDS011;53185;47.378;18.922;2023-04-24T04:18:01;20.15;;;10.85;;
58139;SDS011;53185;47.378;18.922;2023-04-24T04:20:30;16.95;;;10.35;;
58139;SDS011;53185;47.378;18.922;2023-04-24T04:22:57;23.27;;;10.70;;
58139;SDS011;53185;47.378;18.922;2023-04-24T04:25:26;17.98;;;10.52;;
58139;SDS011;53185;47.378;18.922;2023-04-24T04:27:53;15.50;;;11.00;;
58139;SDS011;53185;47.378;18.922;2023-04-24T04:30:21;17.85;;;11.38;;
58139;SDS011;53185;47.378;18.922;2023-04-24T04:32:51;15.95;;;10.95;;
58139;SDS011;53185;47.378;18.922;2023-04-24T04:35:19;17.58;;;12.10;;
58139;SDS011;53185;47.378;18.922;2023-04-24T04:37:49;25.00;;;12.60;;
58139;SDS011;53185;47.378;18.922;2023-04-24T04:40:19;16.15;;;10.38;;
58139;SDS011;53185;47.378;18.922;2023-04-24T04:42:47;16.05;;;10.55;;
58139;SDS011;53185;47.378;18.922;2023-04-24T04:45:18;19.12;;;10.60;;
58139;SDS011;53185;47.378;18.922;2023-04-24T04:47:47;13.62;;;9.75;;
58139;SDS011;53185;47.378;18.922;2023-04-24T04:50:14;17.10;;;10.02;;
58139;SDS011;53185;47.378;18.922;2023-04-24T04:52:44;20.48;;;9.98;;
58139;SDS011;53185;47.378;18.922;2023-04-24T04:55:14;17.27;;;10.33;;
58139;SDS011;53185;47.378;18.922;2023-04-24T04:57:44;18.42;;;11.27;;
58139;SDS011;53185;47.378;18.922;2023-04-24T05:00:12;17.62;;;11.25;;
58139;SDS011;53185;47.378;18.922;2023-04-24T05:02:40;16.70;;;10.43;;
58139;SDS011;53185;47.378;18.922;2023-04-24T05:05:08;21.00;;;11.93;;
58139;SDS011;53185;47.378;18.922;2023-04-24T05:07:37;20.55;;;11.93;;
58139;SDS011;53185;47.378;18.922;2023-04-24T05:10:04;21.17;;;12.07;;
58139;SDS011;53185;47.378;18.922;2023-04-24T05:12:32;21.15;;;12.43;;
58139;SDS011;53185;47.378;18.922;2023-04-24T05:15:00;27.00;;;11.63;;
58139;SDS011;53185;47.378;18.922;2023-04-24T05:17:28;23.08;;;11.35;;
58139;SDS011;53185;47.378;18.922;2023-04-24T05:19:56;18.60;;;11.77;;
58139;SDS011;53185;47.378;18.922;2023-04-24T05:22:24;25.02;;;11.88;;
58139;SDS011;53185;47.378;18.922;2023-04-24T05:24:51;20.62;;;12.88;;
58139;SDS011;53185;47.378;18.922;2023-04-24T05:27:20;24.08;;;14.80;;
58139;SDS011;53185;47.378;18.922;2023-04-24T05:29:48;19.08;;;13.18;;
58139;SDS011;53185;47.378;18.922;2023-04-24T05:32:16;19.80;;;11.82;;
58139;SDS011;53185;47.378;18.922;2023-04-24T05:34:43;23.58;;;12.77;;
58139;SDS011;53185;47.378;18.922;2023-04-24T05:37:11;18.90;;;12.63;;
58139;SDS011;53185;47.378;18.922;2023-04-24T05:39:38;22.80;;;13.45;;
58139;SDS011;53185;47.378;18.922;2023-04-24T05:42:07;17.70;;;12.35;;
58139;SDS011;53185;47.378;18.922;2023-04-24T05:44:35;17.00;;;10.93;;
58139;SDS011;53185;47.378;18.922;2023-04-24T05:47:02;14.77;;;10.52;;
58139;SDS011;53185;47.378;18.922;2023-04-24T05:49:30;18.12;;;11.23;;
58139;SDS011;53185;47.378;18.922;2023-04-24T05:51:58;15.60;;;8.95;;
58139;SDS011;53185;47.378;18.922;2023-04-24T05:54:25;15.23;;;9.52;;
58139;SDS011;53185;47.378;18.922;2023-04-24T05:56:52;14.98;;;9.00;;
58139;SDS011;53185;47.378;18.922;2023-04-24T05:59:23;11.57;;;8.30;;
58139;SDS011;53185;47.378;18.922;2023-04-24T06:01:51;15.05;;;8.90;;
58139;SDS011;53185;47.378;18.922;2023-04-24T06:04:19;13.77;;;9.55;;
58139;SDS011;53185;47.378;18.922;2023-04-24T06:06:47;12.95;;;8.18;;
58139;SDS011;53185;47.378;18.922;2023-04-24T06:09:17;14.18;;;8.68;;
58139;SDS011;53185;47.378;18.922;2023-04-24T06:11:45;13.43;;;8.55;;
58139;SDS011;53185;47.378;18.922;2023-04-24T06:14:13;13.07;;;7.68;;
58139;SDS011;53185;47.378;18.922;2023-04-24T06:16:43;14.90;;;9.50;;
58139;SDS011;53185;47.378;18.922;2023-04-24T06:19:11;18.17;;;8.70;;
58139;SDS011;53185;47.378;18.922;2023-04-24T06:21:38;16.77;;;9.88;;
58139;SDS011;53185;47.378;18.922;2023-04-24T06:24:05;17.15;;;9.32;;
58139;SDS011;53185;47.378;18.922;2023-04-24T06:26:33;16.73;;;9.35;;
58139;SDS011;53185;47.378;18.922;2023-04-24T06:29:00;13.30;;;8.43;;
58139;SDS011;53185;47.378;18.922;2023-04-24T06:31:27;14.38;;;9.18;;
58139;SDS011;53185;47.378;18.922;2023-04-24T06:33:55;14.13;;;8.93;;
58139;SDS011;53185;47.378;18.922;2023-04-24T06:36:23;13.50;;;8.75;;
58139;SDS011;53185;47.378;18.922;2023-04-24T06:38:50;16.85;;;8.98;;
58139;SDS011;53185;47.378;18.922;2023-04-24T06:41:18;13.82;;;8.32;;
58139;SDS011;53185;47.378;18.922;2023-04-24T06:43:45;13.93;;;8.15;;
58139;SDS011;53185;47.378;18.922;2023-04-24T06:46:13;11.10;;;7.95;;
58139;SDS011;53185;47.378;18.922;2023-04-24T06:48:40;13.98;;;8.90;;
58139;SDS011;53185;47.378;18.922;2023-04-24T06:51:07;14.35;;;8.18;;
58139;SDS011;53185;47.378;18.922;2023-04-24T06:53:35;15.60;;;8.57;;
58139;SDS011;53185;47.378;18.922;2023-04-24T06:56:03;12.20;;;8.13;;
58139;SDS011;53185;47.378;18.922;2023-04-24T06:58:30;19.55;;;12.43;;
58139;SDS011;53185;47.378;18.922;2023-04-24T07:00:58;13.10;;;8.30;;
58139;SDS011;53185;47.378;18.922;2023-04-24T07:03:26;19.30;;;9.40;;
58139;SDS011;53185;47.378;18.922;2023-04-24T07:05:54;12.90;;;9.07;;
58139;SDS011;53185;47.378;18.922;2023-04-24T07:08:21;16.65;;;10.02;;
58139;SDS011;53185;47.378;18.922;2023-04-24T07:10:50;18.02;;;10.10;;
58139;SDS011;53185;47.378;18.922;2023-04-24T07:13:20;16.02;;;10.23;;
58139;SDS011;53185;47.378;18.922;2023-04-24T07:15:47;17.25;;;9.38;;
58139;SDS011;53185;47.378;18.922;2023-04-24T07:18:17;19.02;;;10.63;;
58139;SDS011;53185;47.378;18.922;2023-04-24T07:20:45;17.73;;;9.88;;
58139;SDS011;53185;47.378;18.922;2023-04-24T07:23:12;15.10;;;10.18;;
58139;SDS011;53185;47.378;18.922;2023-04-24T07:25:40;17.42;;;10.63;;
58139;SDS011;53185;47.378;18.922;2023-04-24T07:28:07;13.43;;;9.70;;
58139;SDS011;53185;47.378;18.922;2023-04-24T07:30:35;18.98;;;11.88;;
58139;SDS011;53185;47.378;18.922;2023-04-24T07:33:02;16.45;;;9.13;;
58139;SDS011;53185;47.378;18.922;2023-04-24T07:35:30;13.77;;;9.63;;
58139;SDS011;53185;47.378;18.922;2023-04-24T07:37:57;13.15;;;8.70;;
58139;SDS011;53185;47.378;18.922;2023-04-24T07:40:25;15.25;;;8.60;;
58139;SDS011;53185;47.378;18.922;2023-04-24T07:42:52;11.95;;;7.15;;
58139;SDS011;53185;47.378;18.922;2023-04-24T07:45:19;12.73;;;8.30;;
58139;SDS011;53185;47.378;18.922;2023-04-24T07:47:47;11.48;;;7.65;;
58139;SDS011;53185;47.378;18.922;2023-04-24T07:50:14;12.98;;;7.22;;
58139;SDS011;53185;47.378;18.922;2023-04-24T07:52:42;15.07;;;8.57;;
58139;SDS011;53185;47.378;18.922;2023-04-24T07:55:09;9.00;;;7.57;;
58139;SDS011;53185;47.378;18.922;2023-04-24T07:57:37;11.32;;;7.85;;
58139;SDS011;53185;47.378;18.922;2023-04-24T08:00:04;15.80;;;8.02;;
58139;SDS011;53185;47.378;18.922;2023-04-24T08:02:37;14.52;;;8.10;;
58139;SDS011;53185;47.378;18.922;2023-04-24T08:05:05;13.82;;;7.78;;
58139;SDS011;53185;47.378;18.922;2023-04-24T08:07:33;9.00;;;7.78;;
58139;SDS011;53185;47.378;18.922;2023-04-24T08:10:00;11.27;;;8.20;;
58139;SDS011;53185;47.378;18.922;2023-04-24T08:12:28;9.02;;;7.72;;
58139;SDS011;53185;47.378;18.922;2023-04-24T08:14:56;14.87;;;8.88;;
58139;SDS011;53185;47.378;18.922;2023-04-24T08:17:23;10.75;;;7.75;;
58139;SDS011;53185;47.378;18.922;2023-04-24T08:19:51;11.35;;;8.40;;
58139;SDS011;53185;47.378;18.922;2023-04-24T08:22:20;10.70;;;8.18;;
58139;SDS011;53185;47.378;18.922;2023-04-24T08:24:47;11.55;;;7.78;;
58139;SDS011;53185;47.378;18.922;2023-04-24T08:27:14;14.85;;;8.43;;
58139;SDS011;53185;47.378;18.922;2023-04-24T08:33:13;10.98;;;8.30;;
58139;SDS011;53185;47.378;18.922;2023-04-24T08:39:12;16.45;;;8.13;;
58139;SDS011;53185;47.378;18.922;2023-04-24T08:41:41;14.90;;;8.40;;
58139;SDS011;53185;47.378;18.922;2023-04-24T08:44:10;13.75;;;8.70;;
58139;SDS011;53185;47.378;18.922;2023-04-24T08:46:38;12.25;;;9.07;;
58139;SDS011;53185;47.378;18.922;2023-04-24T08:49:07;14.07;;;9.05;;
58139;SDS011;53185;47.378;18.922;2023-04-24T08:51:36;11.30;;;9.05;;
58139;SDS011;53185;47.378;18.922;2023-04-24T08:54:11;12.10;;;8.65;;
58139;SDS011;53185;47.378;18.922;2023-04-24T08:56:39;16.80;;;8.10;;
58139;SDS011;53185;47.378;18.922;2023-04-24T08:59:10;11.40;;;8.38;;
58139;SDS011;53185;47.378;18.922;2023-04-24T09:01:40;16.00;;;8.93;;
58139;SDS011;53185;47.378;18.922;2023-04-24T09:04:09;18.00;;;10.68;;
58139;SDS011;53185;47.378;18.922;2023-04-24T09:06:41;16.50;;;9.18;;
58139;SDS011;53185;47.378;18.922;2023-04-24T09:09:09;14.05;;;8.85;;
58139;SDS011;53185;47.378;18.922;2023-04-24T09:15:09;11.27;;;7.78;;
58139;SDS011;53185;47.378;18.922;2023-04-24T09:17:37;13.00;;;9.02;;
58139;SDS011;53185;47.378;18.922;2023-04-24T09:20:05;12.10;;;8.40;;
58139;SDS011;53185;47.378;18.922;2023-04-24T09:22:33;19.23;;;9.40;;
58139;SDS011;53185;47.378;18.922;2023-04-24T09:25:02;15.02;;;8.40;;
58139;SDS011;53185;47.378;18.922;2023-04-24T09:27:35;14.43;;;9.07;;
58139;SDS011;53185;47.378;18.922;2023-04-24T09:30:03;13.00;;;8.10;;
58139;SDS011;53185;47.378;18.922;2023-04-24T09:32:31;14.35;;;8.85;;
58139;SDS011;53185;47.378;18.922;2023-04-24T09:35:32;11.70;;;8.98;;
58139;SDS011;53185;47.378;18.922;2023-04-24T09:37:52;20.05;;;11.35;;
58139;SDS011;53185;47.378;18.922;2023-04-24T09:40:20;14.32;;;8.77;;
58139;SDS011;53185;47.378;18.922;2023-04-24T09:42:52;14.82;;;9.40;;
58139;SDS011;53185;47.378;18.922;2023-04-24T09:45:21;13.20;;;8.13;;
58139;SDS011;53185;47.378;18.922;2023-04-24T09:47:52;12.10;;;7.97;;
58139;SDS011;53185;47.378;18.922;2023-04-24T09:50:23;20.58;;;9.73;;
58139;SDS011;53185;47.378;18.922;2023-04-24T09:52:58;13.13;;;8.40;;
58139;SDS011;53185;47.378;18.922;2023-04-24T09:55:26;16.08;;;8.13;;
58139;SDS011;53185;47.378;18.922;2023-04-24T09:57:58;13.35;;;8.48;;
58139;SDS011;53185;47.378;18.922;2023-04-24T10:00:28;14.63;;;8.35;;
58139;SDS011;53185;47.378;18.922;2023-04-24T10:03:00;16.20;;;7.90;;
58139;SDS011;53185;47.378;18.922;2023-04-24T10:05:32;16.23;;;8.52;;
58139;SDS011;53185;47.378;18.922;2023-04-24T10:14:30;12.93;;;9.02;;
58139;SDS011;53185;47.378;18.922;2023-04-24T10:16:57;16.50;;;9.30;;
58139;SDS011;53185;47.378;18.922;2023-04-24T10:19:25;28.58;;;16.27;;
58139;SDS011;53185;47.378;18.922;2023-04-24T10:21:56;15.02;;;9.10;;
58139;SDS011;53185;47.378;18.922;2023-04-24T10:24:26;12.02;;;8.32;;
58139;SDS011;53185;47.378;18.922;2023-04-24T10:27:20;12.00;;;8.13;;
58139;SDS011;53185;47.378;18.922;2023-04-24T10:29:49;16.65;;;7.65;;
58139;SDS011;53185;47.378;18.922;2023-04-24T10:32:18;15.15;;;8.70;;
58139;SDS011;53185;47.378;18.922;2023-04-24T10:34:46;12.77;;;8.70;;
58139;SDS011;53185;47.378;18.922;2023-04-24T10:37:13;13.62;;;8.18;;
58139;SDS011;53185;47.378;18.922;2023-04-24T10:39:47;18.35;;;9.73;;
58139;SDS011;53185;47.378;18.922;2023-04-24T10:42:15;11.45;;;7.65;;
58139;SDS011;53185;47.378;18.922;2023-04-24T10:44:43;16.45;;;9.65;;
58139;SDS011;53185;47.378;18.922;2023-04-24T10:47:14;15.57;;;8.50;;
58139;SDS011;53185;47.378;18.922;2023-04-24T10:49:42;17.17;;;9.32;;
58139;SDS011;53185;47.378;18.922;2023-04-24T10:52:11;11.52;;;7.50;;
58139;SDS011;53185;47.378;18.922;2023-04-24T10:54:44;27.13;;;15.85;;
58139;SDS011;53185;47.378;18.922;2023-04-24T10:57:28;14.57;;;11.20;;
58139;SDS011;53185;47.378;18.922;2023-04-24T11:00:13;12.67;;;5.47;;
58139;SDS011;53185;47.378;18.922;2023-04-24T11:02:47;10.75;;;5.53;;
58139;SDS011;53185;47.378;18.922;2023-04-24T11:05:20;9.68;;;5.78;;
58139;SDS011;53185;47.378;18.922;2023-04-24T11:10:47;34.45;;;13.07;;
58139;SDS011;53185;47.378;18.922;2023-04-24T11:13:15;16.95;;;6.53;;
58139;SDS011;53185;47.378;18.922;2023-04-24T11:15:43;20.90;;;10.30;;
58139;SDS011;53185;47.378;18.922;2023-04-24T11:18:13;30.00;;;13.68;;
58139;SDS011;53185;47.378;18.922;2023-04-24T11:20:44;33.60;;;16.85;;
58139;SDS011;53185;47.378;18.922;2023-04-24T11:23:12;13.13;;;7.72;;
58139;SDS011;53185;47.378;18.922;2023-04-24T11:25:41;11.65;;;4.53;;
58139;SDS011;53185;47.378;18.922;2023-04-24T11:28:09;9.38;;;5.30;;
58139;SDS011;53185;47.378;18.922;2023-04-24T11:30:43;14.38;;;6.53;;
58139;SDS011;53185;47.378;18.922;2023-04-24T11:33:11;11.90;;;6.37;;
58139;SDS011;53185;47.378;18.922;2023-04-24T11:35:47;13.95;;;6.62;;
58139;SDS011;53185;47.378;18.922;2023-04-24T11:38:15;13.45;;;7.30;;
58139;SDS011;53185;47.378;18.922;2023-04-24T11:40:51;14.00;;;8.85;;
58139;SDS011;53185;47.378;18.922;2023-04-24T11:43:19;11.70;;;6.82;;
58139;SDS011;53185;47.378;18.922;2023-04-24T11:45:50;11.38;;;6.72;;
58139;SDS011;53185;47.378;18.922;2023-04-24T11:48:20;13.85;;;6.75;;
58139;SDS011;53185;47.378;18.922;2023-04-24T11:50:50;11.48;;;8.18;;
58139;SDS011;53185;47.378;18.922;2023-04-24T11:53:20;8.23;;;4.75;;
58139;SDS011;53185;47.378;18.922;2023-04-24T11:55:48;7.32;;;4.12;;
58139;SDS011;53185;47.378;18.922;2023-04-24T11:58:22;8.93;;;3.45;;
58139;SDS011;53185;47.378;18.922;2023-04-24T12:07:01;4.68;;;3.03;;
58139;SDS011;53185;47.378;18.922;2023-04-24T12:09:39;12.00;;;3.50;;
58139;SDS011;53185;47.378;18.922;2023-04-24T12:12:08;25.73;;;13.15;;
58139;SDS011;53185;47.378;18.922;2023-04-24T12:14:47;8.13;;;4.55;;
58139;SDS011;53185;47.378;18.922;2023-04-24T12:20:47;6.53;;;4.03;;
58139;SDS011;53185;47.378;18.922;2023-04-24T12:23:14;6.93;;;2.70;;
58139;SDS011;53185;47.378;18.922;2023-04-24T12:25:42;6.70;;;3.55;;
58139;SDS011;53185;47.378;18.922;2023-04-24T12:28:10;6.85;;;3.58;;
58139;SDS011;53185;47.378;18.922;2023-04-24T12:30:42;5.53;;;3.00;;
58139;SDS011;53185;47.378;18.922;2023-04-24T12:33:19;5.25;;;3.58;;
58139;SDS011;53185;47.378;18.922;2023-04-24T12:35:48;7.37;;;3.15;;
58139;SDS011;53185;47.378;18.922;2023-04-24T12:38:23;5.95;;;3.10;;
58139;SDS011;53185;47.378;18.922;2023-04-24T12:41:02;10.20;;;3.42;;
58139;SDS011;53185;47.378;18.922;2023-04-24T12:43:31;6.30;;;2.97;;
58139;SDS011;53185;47.378;18.922;2023-04-24T12:45:59;5.50;;;2.85;;
58139;SDS011;53185;47.378;18.922;2023-04-24T12:48:26;4.57;;;3.08;;
58139;SDS011;53185;47.378;18.922;2023-04-24T12:50:54;9.05;;;3.30;;
58139;SDS011;53185;47.378;18.922;2023-04-24T12:53:24;5.10;;;3.65;;
58139;SDS011;53185;47.378;18.922;2023-04-24T12:55:53;14.63;;;4.40;;
58139;SDS011;53185;47.378;18.922;2023-04-24T12:58:20;9.63;;;3.17;;
58139;SDS011;53185;47.378;18.922;2023-04-24T13:00:48;11.60;;;3.22;;
58139;SDS011;53185;47.378;18.922;2023-04-24T13:03:15;5.35;;;2.90;;
58139;SDS011;53185;47.378;18.922;2023-04-24T13:05:43;6.10;;;3.80;;
58139;SDS011;53185;47.378;18.922;2023-04-24T13:08:11;9.85;;;4.18;;
58139;SDS011;53185;47.378;18.922;2023-04-24T13:10:39;10.20;;;5.62;;
58139;SDS011;53185;47.378;18.922;2023-04-24T13:13:07;14.68;;;5.05;;
58139;SDS011;53185;47.378;18.922;2023-04-24T13:15:35;12.05;;;4.00;;
58139;SDS011;53185;47.378;18.922;2023-04-24T13:18:03;4.03;;;3.10;;
58139;SDS011;53185;47.378;18.922;2023-04-24T13:20:30;11.65;;;4.32;;
58139;SDS011;53185;47.378;18.922;2023-04-24T13:22:58;17.62;;;4.57;;
58139;SDS011;53185;47.378;18.922;2023-04-24T13:25:25;8.90;;;3.65;;
58139;SDS011;53185;47.378;18.922;2023-04-24T13:27:53;8.90;;;4.20;;
58139;SDS011;53185;47.378;18.922;2023-04-24T13:30:20;11.23;;;5.32;;
58139;SDS011;53185;47.378;18.922;2023-04-24T13:32:48;9.65;;;4.47;;
58139;SDS011;53185;47.378;18.922;2023-04-24T13:35:15;9.68;;;4.55;;
58139;SDS011;53185;47.378;18.922;2023-04-24T13:37:43;10.07;;;5.22;;
58139;SDS011;53185;47.378;18.922;2023-04-24T13:40:10;14.20;;;5.55;;
58139;SDS011;53185;47.378;18.922;2023-04-24T13:42:39;17.45;;;6.22;;
58139;SDS011;53185;47.378;18.922;2023-04-24T13:45:07;16.40;;;6.87;;
58139;SDS011;53185;47.378;18.922;2023-04-24T13:47:38;12.50;;;7.35;;
58139;SDS011;53185;47.378;18.922;2023-04-24T13:50:08;19.45;;;9.45;;
58139;SDS011;53185;47.378;18.922;2023-04-24T13:52:36;15.25;;;7.22;;
58139;SDS011;53185;47.378;18.922;2023-04-24T13:55:04;23.27;;;9.15;;
58139;SDS011;53185;47.378;18.922;2023-04-24T13:57:32;16.60;;;8.75;;
58139;SDS011;53185;47.378;18.922;2023-04-24T13:59:59;15.50;;;8.10;;
58139;SDS011;53185;47.378;18.922;2023-04-24T14:02:32;10.35;;;6.20;;
58139;SDS011;53185;47.378;18.922;2023-04-24T14:05:00;8.38;;;4.87;;
58139;SDS011;53185;47.378;18.922;2023-04-24T14:07:28;10.65;;;5.57;;
58139;SDS011;53185;47.378;18.922;2023-04-24T14:09:55;9.93;;;5.60;;
58139;SDS011;53185;47.378;18.922;2023-04-24T14:12:24;10.45;;;6.00;;
58139;SDS011;53185;47.378;18.922;2023-04-24T14:14:51;10.15;;;6.85;;
58139;SDS011;53185;47.378;18.922;2023-04-24T14:17:18;10.30;;;7.18;;
58139;SDS011;53185;47.378;18.922;2023-04-24T14:19:46;6.75;;;5.12;;
58139;SDS011;53185;47.378;18.922;2023-04-24T14:22:14;12.60;;;6.85;;
58139;SDS011;53185;47.378;18.922;2023-04-24T14:24:41;15.32;;;8.57;;
58139;SDS011;53185;47.378;18.922;2023-04-24T14:27:09;12.98;;;10.88;;
58139;SDS011;53185;47.378;18.922;2023-04-24T14:29:36;11.95;;;6.35;;
58139;SDS011;53185;47.378;18.922;2023-04-24T14:32:03;13.57;;;7.90;;
58139;SDS011;53185;47.378;18.922;2023-04-24T14:34:31;10.45;;;5.43;;
58139;SDS011;53185;47.378;18.922;2023-04-24T14:36:58;12.50;;;5.80;;
58139;SDS011;53185;47.378;18.922;2023-04-24T14:42:55;11.50;;;7.28;;
58139;SDS011;53185;47.378;18.922;2023-04-24T14:45:25;8.25;;;5.12;;
58139;SDS011;53185;47.378;18.922;2023-04-24T14:47:53;8.40;;;5.87;;
58139;SDS011;53185;47.378;18.922;2023-04-24T14:50:21;6.62;;;4.95;;
58139;SDS011;53185;47.378;18.922;2023-04-24T14:52:50;10.82;;;6.65;;
58139;SDS011;53185;47.378;18.922;2023-04-24T14:55:21;14.48;;;6.90;;
58139;SDS011;53185;47.378;18.922;2023-04-24T14:57:48;8.55;;;5.28;;
58139;SDS011;53185;47.378;18.922;2023-04-24T15:00:16;11.65;;;8.30;;